createdAt,value
2023-01-06T00:00:26.756Z,56.30
2023-01-06T00:01:29.062Z,53.23
2023-01-06T00:02:30.622Z,57.97
2023-01-06T00:03:32.418Z,51.63
2023-01-06T00:04:34.043Z,51.03
2023-01-06T00:05:35.894Z,54.23
2023-01-06T00:06:37.477Z,52.93
2023-01-06T00:07:39.370Z,49.47
2023-01-06T00:08:40.897Z,51.73
2023-01-06T00:09:42.451Z,47.77
2023-01-06T00:10:43.973Z,52.87
2023-01-06T00:11:45.561Z,51.60
2023-01-06T00:12:48.775Z,56.70
2023-01-06T00:13:50.452Z,51.47
2023-01-06T00:14:52.446Z,51.27
2023-01-06T00:15:55.530Z,48.60
2023-01-06T00:16:57.169Z,48.97
2023-01-06T00:17:58.683Z,47.87
2023-01-06T00:19:00.527Z,47.10
2023-01-06T00:20:02.687Z,46.33
2023-01-06T00:21:05.027Z,48.97
2023-01-06T00:22:06.537Z,48.57
2023-01-06T00:23:08.063Z,49.77
2023-01-06T00:24:09.925Z,48.90
2023-01-06T00:25:11.557Z,50.60
2023-01-06T00:26:13.134Z,51.73
2023-01-06T00:27:14.842Z,49.80
2023-01-06T00:28:16.509Z,52.87
2023-01-06T00:29:18.059Z,51.60
2023-01-06T00:30:19.607Z,49.10
2023-01-06T00:31:21.325Z,46.37
2023-01-06T00:32:23.020Z,52.23
2023-01-06T00:33:24.672Z,47.60
2023-01-06T00:34:26.382Z,44.87
2023-01-06T00:35:27.915Z,43.43
2023-01-06T00:36:29.550Z,45.20
2023-01-06T00:37:31.211Z,46.27
2023-01-06T00:38:32.896Z,47.53
2023-01-06T00:39:34.452Z,46.60
2023-01-06T00:40:37.192Z,46.40
2023-01-06T00:41:57.939Z,47.63
2023-01-06T00:42:59.550Z,47.30
2023-01-06T00:44:02.211Z,49.87
2023-01-06T00:45:04.109Z,46.03
2023-01-06T00:46:05.672Z,50.37
2023-01-06T00:47:10.232Z,49.80
2023-01-06T00:48:11.860Z,52.60
2023-01-06T00:49:13.353Z,46.00
2023-01-06T00:50:14.919Z,48.07
2023-01-06T00:51:16.521Z,45.27
2023-01-06T00:52:18.080Z,48.60
2023-01-06T00:53:19.657Z,50.00
2023-01-06T00:54:21.643Z,48.80
2023-01-06T00:55:23.310Z,47.07
2023-01-06T00:56:24.997Z,43.70
2023-01-06T00:57:26.626Z,41.27
2023-01-06T00:58:31.713Z,46.20
2023-01-06T00:59:33.845Z,41.47
2023-01-06T01:00:35.612Z,40.47
2023-01-06T01:01:37.988Z,41.40
2023-01-06T01:02:39.751Z,44.33
2023-01-06T01:03:41.406Z,46.47
2023-01-06T01:04:42.976Z,44.33
2023-01-06T01:05:44.504Z,43.27
2023-01-06T01:06:47.431Z,47.00
2023-01-06T01:07:48.989Z,45.67
2023-01-06T01:08:55.598Z,44.93
2023-01-06T01:09:57.160Z,40.47
2023-01-06T01:11:07.724Z,44.43
2023-01-06T01:12:11.727Z,47.33
2023-01-06T01:13:13.290Z,45.33
2023-01-06T01:14:17.442Z,47.93
2023-01-06T01:15:18.944Z,49.83
2023-01-06T01:16:20.462Z,44.17
2023-01-06T01:17:31.368Z,50.83
2023-01-06T01:18:33.739Z,46.27
2023-01-06T01:19:35.896Z,43.63
2023-01-06T01:20:37.529Z,45.27
2023-01-06T01:21:39.765Z,45.40
2023-01-06T01:22:41.263Z,47.23
2023-01-06T01:23:42.795Z,44.77
2023-01-06T01:24:44.329Z,43.03
2023-01-06T01:25:45.948Z,45.53
2023-01-06T01:26:47.617Z,45.87
2023-01-06T01:27:49.117Z,48.97
2023-01-06T01:28:50.669Z,53.47
2023-01-06T01:29:52.183Z,52.50
2023-01-06T01:31:00.121Z,55.97
2023-01-06T01:32:01.912Z,56.20
2023-01-06T01:33:03.561Z,51.83
2023-01-06T01:34:05.386Z,54.40
2023-01-06T01:35:07.136Z,47.43
2023-01-06T01:36:10.777Z,47.40
2023-01-06T01:37:12.389Z,50.83
2023-01-06T01:38:13.927Z,50.03
2023-01-06T01:39:17.231Z,49.40
2023-01-06T01:40:18.794Z,50.87
2023-01-06T01:41:22.796Z,51.50
2023-01-06T01:42:24.359Z,46.83
2023-01-06T01:43:25.941Z,45.70
2023-01-06T01:44:52.050Z,45.17
2023-01-06T01:45:55.897Z,44.97
2023-01-06T01:46:57.755Z,44.83
2023-01-06T01:48:07.475Z,44.00
2023-01-06T01:49:18.149Z,41.90
2023-01-06T01:50:53.722Z,41.53
2023-01-06T01:51:57.269Z,45.17
2023-01-06T01:53:06.145Z,49.90
2023-01-06T01:54:11.256Z,47.63
2023-01-06T01:55:14.433Z,45.50
2023-01-06T01:56:21.236Z,57.33
2023-01-06T01:57:28.063Z,52.07
2023-01-06T01:58:48.963Z,47.37
2023-01-06T01:59:51.535Z,45.67
2023-01-06T02:00:53.311Z,45.40
2023-01-06T02:01:55.609Z,41.87
2023-01-06T02:02:58.390Z,44.53
2023-01-06T02:04:02.081Z,48.07
2023-01-06T02:05:04.103Z,46.27
2023-01-06T02:06:14.241Z,46.23
2023-01-06T02:07:15.769Z,44.33
2023-01-06T02:08:35.270Z,43.63
2023-01-06T02:09:51.867Z,42.67
2023-01-06T02:10:53.459Z,42.07
2023-01-06T02:11:56.803Z,41.20
2023-01-06T02:12:59.813Z,41.77
2023-01-06T02:14:11.239Z,37.30
2023-01-06T02:15:26.682Z,38.50
2023-01-06T02:16:43.457Z,42.67
2023-01-06T02:17:54.074Z,43.63
2023-01-06T02:19:07.717Z,40.80
2023-01-06T02:20:18.429Z,37.13
2023-01-06T02:21:35.804Z,42.20
2023-01-06T02:23:02.188Z,44.93
2023-01-06T02:24:44.412Z,43.40
2023-01-06T02:26:21.287Z,44.10
2023-01-06T02:27:57.366Z,39.87
2023-01-06T02:29:14.163Z,45.00
2023-01-06T02:30:43.251Z,39.47
2023-01-06T02:32:16.726Z,41.43
2023-01-06T02:33:42.794Z,40.77
2023-01-06T02:34:47.288Z,38.50
2023-01-06T02:36:24.966Z,39.63
2023-01-06T02:37:47.889Z,41.93
2023-01-06T02:38:56.601Z,35.97
2023-01-06T02:40:01.129Z,39.20
2023-01-06T02:41:25.602Z,40.10
2023-01-06T02:42:31.000Z,34.33
2023-01-06T02:43:44.140Z,41.13
2023-01-06T02:44:57.269Z,36.83
2023-01-06T02:46:07.665Z,37.90
2023-01-06T02:47:19.498Z,41.90
2023-01-06T02:48:33.744Z,39.37
2023-01-06T02:50:19.692Z,42.40
2023-01-06T02:51:43.343Z,45.17
2023-01-06T02:53:17.053Z,49.07
2023-01-06T02:54:42.423Z,47.40
2023-01-06T02:55:47.828Z,44.20
2023-01-06T02:56:55.749Z,40.90
2023-01-06T02:58:26.619Z,44.13
2023-01-06T02:59:36.307Z,44.10
2023-01-06T03:00:46.290Z,36.40
2023-01-06T03:01:52.854Z,34.97
2023-01-06T03:03:10.294Z,39.57
2023-01-06T03:04:20.936Z,37.10
2023-01-06T03:05:24.700Z,33.87
2023-01-06T03:06:29.852Z,32.03
2023-01-06T03:07:32.921Z,29.93
2023-01-06T03:08:36.242Z,34.03
2023-01-06T03:09:38.738Z,27.83
2023-01-06T03:10:43.168Z,33.43
2023-01-06T03:11:50.185Z,36.10
2023-01-06T03:12:56.542Z,35.90
2023-01-06T03:14:10.197Z,35.63
2023-01-06T03:15:12.101Z,34.57
2023-01-06T03:16:14.363Z,33.73
2023-01-06T03:17:15.963Z,34.60
2023-01-06T03:18:17.928Z,33.07
2023-01-06T03:19:19.520Z,36.13
2023-01-06T03:20:21.247Z,35.73
2023-01-06T03:21:26.980Z,39.43
2023-01-06T03:22:28.721Z,33.57
2023-01-06T03:23:30.363Z,29.53
2023-01-06T03:24:32.095Z,34.53
2023-01-06T03:25:33.622Z,33.70
2023-01-06T03:26:36.543Z,32.97
2023-01-06T03:27:38.065Z,38.60
2023-01-06T03:28:39.762Z,39.37
2023-01-06T03:29:41.491Z,39.30
2023-01-06T03:31:30.428Z,36.17
2023-01-06T03:32:40.177Z,39.90
2023-01-06T03:34:09.167Z,34.60
2023-01-06T03:35:37.540Z,41.27
2023-01-06T03:37:00.670Z,38.17
2023-01-06T03:38:25.536Z,36.23
2023-01-06T03:39:39.102Z,34.90
2023-01-06T03:40:44.216Z,40.93
2023-01-06T03:42:27.445Z,38.23
2023-01-06T03:43:47.002Z,40.40
2023-01-06T03:45:23.772Z,38.30
2023-01-06T03:46:38.564Z,35.43
2023-01-06T03:47:56.816Z,39.27
2023-01-06T03:49:07.997Z,37.13
2023-01-06T03:50:25.822Z,37.97
2023-01-06T03:51:31.124Z,35.80
2023-01-06T03:52:39.614Z,34.63
2023-01-06T03:53:56.409Z,34.60
2023-01-06T03:55:05.417Z,35.53
2023-01-06T03:56:19.239Z,34.97
2023-01-06T03:57:53.187Z,35.00
2023-01-06T03:58:58.852Z,33.23
2023-01-06T04:00:26.450Z,35.53
2023-01-06T04:01:29.719Z,31.83
2023-01-06T04:02:31.923Z,38.07
2023-01-06T04:03:34.413Z,34.57
2023-01-06T04:04:37.129Z,32.67
2023-01-06T04:05:38.732Z,37.33
2023-01-06T04:06:40.317Z,33.73
2023-01-06T04:07:43.799Z,34.00
2023-01-06T04:08:45.410Z,32.43
2023-01-06T04:09:46.962Z,35.93
2023-01-06T04:10:48.557Z,35.53
2023-01-06T04:12:08.667Z,35.30
2023-01-06T04:13:10.248Z,36.17
2023-01-06T04:14:11.963Z,36.73
2023-01-06T04:15:16.576Z,28.70
2023-01-06T04:16:18.153Z,36.13
2023-01-06T04:17:19.791Z,33.93
2023-01-06T04:18:21.327Z,33.47
2023-01-06T04:19:22.833Z,31.53
2023-01-06T04:20:28.025Z,32.50
2023-01-06T04:21:29.601Z,36.33
2023-01-06T04:22:31.239Z,32.03
2023-01-06T04:23:33.093Z,31.57
2023-01-06T04:24:34.658Z,36.40
2023-01-06T04:25:36.775Z,32.60
2023-01-06T04:26:38.332Z,33.73
2023-01-06T04:27:39.996Z,32.43
2023-01-06T04:28:41.576Z,32.83
2023-01-06T04:29:43.239Z,33.23
2023-01-06T04:30:44.818Z,34.33
2023-01-06T04:31:46.361Z,32.00
2023-01-06T04:32:48.012Z,32.70
2023-01-06T04:33:49.504Z,39.60
2023-01-06T04:34:51.368Z,38.37
2023-01-06T04:35:53.976Z,37.50
2023-01-06T04:36:57.211Z,38.80
2023-01-06T04:38:02.231Z,34.17
2023-01-06T04:39:04.063Z,34.33
2023-01-06T04:40:07.754Z,33.20
2023-01-06T04:41:09.343Z,34.73
2023-01-06T04:42:10.968Z,36.30
2023-01-06T04:43:18.938Z,33.93
2023-01-06T04:44:21.026Z,41.77
2023-01-06T04:45:22.944Z,38.27
2023-01-06T04:46:24.546Z,40.47
2023-01-06T04:47:26.103Z,37.97
2023-01-06T04:48:27.677Z,41.70
2023-01-06T04:49:29.268Z,39.10
2023-01-06T04:50:30.823Z,39.83
2023-01-06T04:51:32.368Z,39.83
2023-01-06T04:52:33.945Z,40.80
2023-01-06T04:53:37.565Z,37.03
2023-01-06T04:54:39.085Z,34.30
2023-01-06T04:55:41.929Z,39.53
2023-01-06T04:56:43.525Z,37.03
2023-01-06T04:57:45.141Z,39.90
2023-01-06T04:58:46.771Z,41.13
2023-01-06T04:59:48.299Z,40.93
2023-01-06T05:00:49.858Z,39.40
2023-01-06T05:01:51.633Z,40.30
2023-01-06T05:02:53.265Z,41.80
2023-01-06T05:03:55.028Z,40.70
2023-01-06T05:04:56.730Z,42.20
2023-01-06T05:06:09.833Z,39.17
2023-01-06T05:07:11.397Z,44.80
2023-01-06T05:08:12.929Z,39.70
2023-01-06T05:09:14.494Z,37.83
2023-01-06T05:10:16.121Z,37.83
2023-01-06T05:11:20.724Z,43.60
2023-01-06T05:12:22.531Z,34.10
2023-01-06T05:13:24.079Z,38.70
2023-01-06T05:14:25.607Z,34.33
2023-01-06T05:15:27.177Z,38.10
2023-01-06T05:16:33.857Z,31.57
2023-01-06T05:17:35.448Z,45.17
2023-01-06T05:18:37.141Z,37.10
2023-01-06T05:19:38.705Z,32.93
2023-01-06T05:20:40.271Z,36.20
2023-01-06T05:21:41.803Z,39.53
2023-01-06T05:22:43.451Z,36.90
2023-01-06T05:23:46.040Z,34.17
2023-01-06T05:24:47.700Z,37.03
2023-01-06T05:25:52.586Z,41.53
2023-01-06T05:26:55.052Z,42.13
2023-01-06T05:27:56.619Z,39.67
2023-01-06T05:28:58.202Z,42.57
2023-01-06T05:29:59.770Z,45.73
2023-01-06T05:31:02.721Z,44.47
2023-01-06T05:32:05.911Z,47.67
2023-01-06T05:33:07.630Z,52.37
2023-01-06T05:34:11.194Z,48.00
2023-01-06T05:35:12.827Z,58.73
2023-01-06T05:36:16.790Z,55.47
2023-01-06T05:37:18.388Z,47.00
2023-01-06T05:38:20.079Z,53.70
2023-01-06T05:39:21.668Z,47.87
2023-01-06T05:40:23.923Z,51.30
2023-01-06T05:41:25.452Z,52.47
2023-01-06T05:42:27.005Z,44.93
2023-01-06T05:43:29.410Z,43.80
2023-01-06T05:44:31.620Z,42.53
2023-01-06T05:45:33.223Z,39.00
2023-01-06T05:46:34.926Z,36.47
2023-01-06T05:47:36.553Z,40.20
2023-01-06T05:48:39.256Z,43.50
2023-01-06T05:49:40.872Z,44.77
2023-01-06T05:50:42.624Z,43.77
2023-01-06T05:51:44.158Z,40.53
2023-01-06T05:52:45.699Z,45.77
2023-01-06T05:53:48.725Z,44.63
2023-01-06T05:54:50.268Z,44.53
2023-01-06T05:55:51.825Z,48.37
2023-01-06T05:56:53.367Z,42.77
2023-01-06T05:57:54.876Z,55.47
2023-01-06T05:58:56.436Z,49.20
2023-01-06T05:59:57.997Z,43.50
2023-01-06T06:01:04.122Z,47.53
2023-01-06T06:02:05.850Z,51.23
2023-01-06T06:03:07.406Z,46.07
2023-01-06T06:04:09.051Z,49.23
2023-01-06T06:05:10.995Z,45.87
2023-01-06T06:06:12.553Z,52.53
2023-01-06T06:07:14.134Z,54.63
2023-01-06T06:08:16.107Z,49.43
2023-01-06T06:09:17.670Z,40.03
2023-01-06T06:10:19.194Z,42.27
2023-01-06T06:11:22.348Z,42.50
2023-01-06T06:12:24.002Z,35.73
2023-01-06T06:13:25.572Z,43.17
2023-01-06T06:14:27.306Z,42.00
2023-01-06T06:15:28.858Z,33.07
2023-01-06T06:16:30.533Z,38.33
2023-01-06T06:17:32.106Z,34.40
2023-01-06T06:18:34.076Z,35.93
2023-01-06T06:19:35.571Z,32.23
2023-01-06T06:20:37.140Z,28.57
2023-01-06T06:21:39.199Z,28.80
2023-01-06T06:22:40.705Z,34.03
2023-01-06T06:23:43.176Z,31.47
2023-01-06T06:24:44.957Z,34.87
2023-01-06T06:25:50.261Z,28.33
2023-01-06T06:26:51.917Z,28.77
2023-01-06T06:27:57.479Z,28.03
2023-01-06T06:28:59.037Z,31.17
2023-01-06T06:30:00.603Z,33.47
2023-01-06T06:31:06.671Z,32.40
2023-01-06T06:32:08.267Z,36.70
2023-01-06T06:33:09.791Z,40.77
2023-01-06T06:34:13.123Z,41.00
2023-01-06T06:35:14.784Z,44.20
2023-01-06T06:36:16.489Z,42.23
2023-01-06T06:37:18.088Z,49.00
2023-01-06T06:38:19.648Z,48.03
2023-01-06T06:39:22.107Z,51.87
2023-01-06T06:40:23.827Z,50.87
2023-01-06T06:41:25.889Z,45.87
2023-01-06T06:42:27.453Z,50.17
2023-01-06T06:43:29.292Z,45.23
2023-01-06T06:44:30.815Z,47.33
2023-01-06T06:45:32.397Z,48.13
2023-01-06T06:46:33.939Z,41.20
2023-01-06T06:47:35.561Z,43.43
2023-01-06T06:48:37.542Z,43.40
2023-01-06T06:49:39.125Z,35.57
2023-01-06T06:50:40.660Z,42.63
2023-01-06T06:51:42.279Z,45.77
2023-01-06T06:52:43.869Z,43.07
2023-01-06T06:53:45.991Z,42.30
2023-01-06T06:54:47.482Z,43.63
2023-01-06T06:55:49.015Z,41.23
2023-01-06T06:56:50.591Z,38.57
2023-01-06T06:57:52.113Z,34.17
2023-01-06T06:58:53.699Z,39.00
2023-01-06T06:59:57.840Z,38.93
2023-01-06T07:01:04.284Z,39.90
2023-01-06T07:02:06.477Z,43.13
2023-01-06T07:03:08.073Z,42.67
2023-01-06T07:04:09.696Z,45.03
2023-01-06T07:05:11.224Z,50.40
2023-01-06T07:06:16.730Z,50.63
2023-01-06T07:07:18.343Z,50.90
2023-01-06T07:08:20.262Z,58.70
2023-01-06T07:09:21.792Z,58.80
2023-01-06T07:10:23.301Z,64.57
2023-01-06T07:11:24.831Z,61.27
2023-01-06T07:12:26.339Z,68.83
2023-01-06T07:13:28.324Z,58.80
2023-01-06T07:14:29.895Z,62.57
2023-01-06T07:15:31.565Z,57.23
2023-01-06T07:16:33.114Z,59.83
2023-01-06T07:17:34.714Z,56.17
2023-01-06T07:18:36.981Z,49.27
2023-01-06T07:19:38.496Z,54.57
2023-01-06T07:20:40.089Z,56.33
2023-01-06T07:21:41.779Z,56.53
2023-01-06T07:22:43.308Z,57.33
2023-01-06T07:23:44.827Z,60.40
2023-01-06T07:24:46.488Z,70.63
2023-01-06T07:26:01.590Z,76.33
2023-01-06T07:27:03.170Z,79.03
2023-01-06T07:28:05.646Z,78.73
2023-01-06T07:29:07.209Z,79.67
2023-01-06T07:30:09.240Z,80.87
2023-01-06T07:31:10.985Z,74.50
2023-01-06T07:32:12.568Z,75.40
2023-01-06T07:33:14.199Z,72.33
2023-01-06T07:34:15.754Z,69.20
2023-01-06T07:35:18.018Z,67.50
2023-01-06T07:36:19.541Z,64.07
2023-01-06T07:37:21.073Z,63.23
2023-01-06T07:38:23.511Z,66.73
2023-01-06T07:39:25.094Z,62.57
2023-01-06T07:40:26.605Z,66.23
2023-01-06T07:41:28.113Z,67.20
2023-01-06T07:42:29.641Z,66.33
2023-01-06T07:43:31.196Z,70.33
2023-01-06T07:44:32.802Z,70.27
2023-01-06T07:45:35.122Z,76.47
2023-01-06T07:46:36.689Z,74.20
2023-01-06T07:47:38.281Z,76.97
2023-01-06T07:48:39.850Z,80.17
2023-01-06T07:49:41.432Z,80.17
2023-01-06T07:50:43.005Z,76.27
2023-01-06T07:51:44.575Z,70.70
2023-01-06T07:52:46.201Z,70.77
2023-01-06T07:53:47.754Z,71.57
2023-01-06T07:54:49.303Z,66.30
2023-01-06T07:55:52.652Z,69.47
2023-01-06T07:56:54.224Z,73.47
2023-01-06T07:57:55.772Z,73.83
2023-01-06T07:58:57.734Z,70.40
2023-01-06T07:59:59.321Z,70.43
2023-01-06T08:01:05.948Z,65.83
2023-01-06T08:02:07.634Z,69.77
2023-01-06T08:03:11.631Z,59.17
2023-01-06T08:04:13.270Z,60.40
2023-01-06T08:05:14.849Z,69.53
2023-01-06T08:06:16.401Z,70.57
2023-01-06T08:07:18.239Z,62.90
2023-01-06T08:08:19.807Z,68.40
2023-01-06T08:09:21.351Z,58.73
2023-01-06T08:10:22.900Z,41.30
2023-01-06T08:11:24.553Z,40.97
2023-01-06T08:12:26.067Z,36.23
2023-01-06T08:13:27.604Z,37.80
2023-01-06T08:14:29.173Z,38.67
2023-01-06T08:15:30.778Z,39.17
2023-01-06T08:16:32.286Z,43.67
2023-01-06T08:17:33.821Z,38.43
2023-01-06T08:18:36.158Z,37.87
2023-01-06T08:19:37.742Z,39.13
2023-01-06T08:20:39.366Z,39.60
2023-01-06T08:21:40.878Z,42.20
2023-01-06T08:22:42.454Z,41.23
2023-01-06T08:23:43.998Z,38.30
2023-01-06T08:24:45.585Z,48.60
2023-01-06T08:25:47.122Z,46.27
2023-01-06T08:26:48.620Z,50.30
2023-01-06T08:27:50.227Z,51.73
2023-01-06T08:28:53.565Z,64.30
2023-01-06T08:29:55.471Z,68.13
2023-01-06T08:30:57.520Z,73.53
2023-01-06T08:32:09.806Z,79.37
2023-01-06T08:33:13.388Z,72.73
2023-01-06T08:34:15.089Z,66.07
2023-01-06T08:35:16.956Z,62.70
2023-01-06T08:36:20.743Z,69.00
2023-01-06T08:37:22.286Z,64.73
2023-01-06T08:38:23.849Z,57.47
2023-01-06T08:39:25.389Z,64.17
2023-01-06T08:40:26.910Z,56.13
2023-01-06T08:41:28.560Z,60.27
2023-01-06T08:42:30.104Z,59.67
2023-01-06T08:43:31.742Z,58.50
2023-01-06T08:44:33.309Z,57.23
2023-01-06T08:45:39.427Z,51.80
2023-01-06T08:46:41.089Z,56.83
2023-01-06T08:47:42.696Z,56.43
2023-01-06T08:48:44.903Z,55.80
2023-01-06T08:49:46.557Z,54.87
2023-01-06T08:50:48.162Z,58.87
2023-01-06T08:51:49.792Z,52.93
2023-01-06T08:52:52.115Z,54.47
2023-01-06T08:53:54.417Z,50.33
2023-01-06T08:54:55.997Z,54.10
2023-01-06T08:55:57.588Z,49.60
2023-01-06T08:56:59.181Z,48.67
2023-01-06T08:58:00.729Z,50.20
2023-01-06T08:59:03.851Z,47.33
2023-01-06T09:00:06.618Z,48.13
2023-01-06T09:01:16.236Z,42.60
2023-01-06T09:02:17.869Z,39.10
2023-01-06T09:03:19.585Z,39.73
2023-01-06T09:04:21.212Z,41.23
2023-01-06T09:05:22.779Z,42.43
2023-01-06T09:06:25.020Z,39.43
2023-01-06T09:07:26.619Z,39.50
2023-01-06T09:08:28.169Z,31.10
2023-01-06T09:09:29.758Z,38.87
2023-01-06T09:10:31.332Z,33.20
2023-01-06T09:11:33.179Z,30.87
2023-01-06T09:12:34.854Z,33.93
2023-01-06T09:13:37.326Z,31.23
2023-01-06T09:14:38.951Z,27.87
2023-01-06T09:15:41.711Z,28.13
2023-01-06T09:16:43.395Z,28.07
2023-01-06T09:17:44.938Z,26.13
2023-01-06T09:18:50.395Z,27.40
2023-01-06T09:19:51.965Z,18.60
2023-01-06T09:20:53.461Z,19.97
2023-01-06T09:21:54.986Z,19.20
2023-01-06T09:22:56.526Z,19.60
2023-01-06T09:23:58.101Z,25.10
2023-01-06T09:24:59.744Z,22.00
2023-01-06T09:26:01.302Z,18.03
2023-01-06T09:27:02.879Z,19.37
2023-01-06T09:28:04.492Z,19.57
2023-01-06T09:29:06.216Z,20.80
2023-01-06T09:30:08.393Z,20.40
2023-01-06T09:31:10.109Z,23.90
2023-01-06T09:32:11.672Z,16.37
2023-01-06T09:33:13.197Z,18.30
2023-01-06T09:34:14.941Z,17.23
2023-01-06T09:35:16.555Z,15.57
2023-01-06T09:36:18.118Z,16.73
2023-01-06T09:37:19.627Z,42.40
2023-01-06T09:38:21.245Z,57.00
2023-01-06T09:39:22.891Z,55.93
2023-01-06T09:40:48.727Z,56.23
2023-01-06T09:42:14.062Z,50.73
2023-01-06T09:43:34.020Z,53.80
2023-01-06T09:44:50.283Z,46.47
2023-01-06T09:45:55.858Z,45.23
2023-01-06T09:47:00.339Z,38.00
2023-01-06T09:48:04.067Z,31.07
2023-01-06T09:49:32.348Z,12.37
2023-01-06T09:50:53.255Z,8.40
2023-01-06T09:51:59.805Z,7.27
2023-01-06T09:53:09.951Z,8.20
2023-01-06T09:54:23.106Z,9.00
2023-01-06T09:55:36.356Z,7.70
2023-01-06T09:56:41.657Z,7.90
2023-01-06T09:57:58.989Z,7.83
2023-01-06T09:59:11.455Z,9.23
2023-01-06T10:00:50.358Z,5.07
2023-01-06T10:01:52.319Z,7.13
2023-01-06T10:02:54.076Z,6.03
2023-01-06T10:03:57.504Z,3.93
2023-01-06T10:04:59.180Z,4.20
2023-01-06T10:06:06.849Z,3.63
2023-01-06T10:07:25.368Z,3.17
2023-01-06T10:09:00.337Z,4.73
2023-01-06T10:10:23.052Z,3.20
2023-01-06T10:11:27.305Z,4.17
2023-01-06T10:12:47.336Z,3.43
2023-01-06T10:14:13.973Z,3.90
2023-01-06T10:15:18.038Z,2.90
2023-01-06T10:16:28.479Z,4.03
2023-01-06T10:17:36.257Z,4.73
2023-01-06T10:18:48.916Z,2.30
2023-01-06T10:20:23.269Z,3.60
2023-01-06T10:21:40.531Z,4.80
2023-01-06T10:23:14.630Z,3.40
2023-01-06T10:24:34.834Z,5.57
2023-01-06T10:25:57.609Z,3.40
2023-01-06T10:27:14.689Z,2.67
2023-01-06T10:28:19.362Z,3.23
2023-01-06T10:29:21.870Z,3.23
2023-01-06T10:30:30.809Z,3.20
2023-01-06T10:31:39.584Z,2.70
2023-01-06T10:32:42.927Z,4.27
2023-01-06T10:33:52.598Z,4.27
2023-01-06T10:34:55.752Z,3.60
2023-01-06T10:35:59.169Z,3.50
2023-01-06T10:37:09.897Z,3.57
2023-01-06T10:38:13.605Z,4.17
2023-01-06T10:39:21.531Z,4.00
2023-01-06T10:40:29.398Z,5.23
2023-01-06T10:41:39.328Z,4.80
2023-01-06T10:42:55.613Z,3.37
2023-01-06T10:43:57.768Z,3.03
2023-01-06T10:44:59.351Z,3.77
2023-01-06T10:46:00.897Z,3.63
2023-01-06T10:47:02.499Z,3.77
2023-01-06T10:48:06.896Z,2.87
2023-01-06T10:49:15.466Z,2.00
2023-01-06T10:50:18.993Z,3.57
2023-01-06T10:51:35.033Z,2.87
2023-01-06T10:52:37.199Z,4.60
2023-01-06T10:53:38.749Z,2.57
2023-01-06T10:54:42.255Z,2.27
2023-01-06T10:55:53.075Z,2.40
2023-01-06T10:57:04.527Z,2.30
2023-01-06T10:58:21.430Z,1.83
2023-01-06T10:59:23.002Z,2.03
2023-01-06T11:00:25.924Z,1.73
2023-01-06T11:01:33.951Z,2.87
2023-01-06T11:02:36.449Z,1.70
2023-01-06T11:03:42.795Z,2.10
2023-01-06T11:04:51.888Z,2.97
2023-01-06T11:06:28.046Z,1.93
2023-01-06T11:07:30.467Z,3.13
2023-01-06T11:08:33.267Z,2.57
2023-01-06T11:09:39.742Z,2.30
2023-01-06T11:10:51.936Z,3.17
2023-01-06T11:11:55.885Z,2.47
2023-01-06T11:13:00.456Z,1.87
2023-01-06T11:14:05.559Z,3.00
2023-01-06T11:15:08.674Z,2.93
2023-01-06T11:16:27.560Z,1.87
2023-01-06T11:17:30.040Z,2.03
2023-01-06T11:18:34.074Z,3.83
2023-01-06T11:19:41.412Z,1.57
2023-01-06T11:20:43.549Z,1.53
2023-01-06T11:21:49.503Z,2.77
2023-01-06T11:22:51.301Z,1.90
2023-01-06T11:24:15.544Z,1.97
2023-01-06T11:25:20.065Z,3.17
2023-01-06T11:26:23.666Z,1.63
2023-01-06T11:27:25.410Z,2.00
2023-01-06T11:28:27.015Z,1.30
2023-01-06T11:29:33.779Z,2.67
2023-01-06T11:30:48.917Z,1.97
2023-01-06T11:31:50.989Z,2.03
2023-01-06T11:32:53.449Z,1.50
2023-01-06T11:33:59.371Z,1.40
2023-01-06T11:35:03.698Z,2.03
2023-01-06T11:36:13.736Z,1.57
2023-01-06T11:37:15.302Z,2.67
2023-01-06T11:38:20.125Z,3.33
2023-01-06T11:39:27.867Z,2.00
2023-01-06T11:40:32.609Z,2.00
2023-01-06T11:41:40.214Z,2.40
2023-01-06T11:43:51.647Z,1.23
2023-01-06T11:44:53.851Z,1.27
2023-01-06T11:46:07.976Z,3.03
2023-01-06T11:47:16.834Z,2.77
2023-01-06T11:48:34.576Z,1.33
2023-01-06T11:49:59.047Z,1.20
2023-01-06T11:51:03.880Z,1.40
2023-01-06T11:52:18.902Z,1.43
2023-01-06T11:53:21.569Z,1.37
2023-01-06T11:54:33.734Z,2.33
2023-01-06T11:55:35.309Z,2.70
2023-01-06T11:56:37.489Z,1.20
2023-01-06T11:57:44.476Z,1.83
2023-01-06T11:58:51.991Z,1.73
2023-01-06T12:00:16.954Z,1.50
2023-01-06T12:01:54.001Z,1.20
2023-01-06T12:03:10.577Z,1.60
2023-01-06T12:04:19.620Z,1.33
2023-01-06T12:05:35.115Z,1.97
2023-01-06T12:06:45.262Z,1.10
2023-01-06T12:07:52.876Z,0.87
2023-01-06T12:09:06.570Z,1.20
2023-01-06T12:10:20.279Z,3.40
2023-01-06T12:11:45.586Z,1.10
2023-01-06T12:12:48.483Z,1.90
2023-01-06T12:14:10.660Z,1.03
2023-01-06T12:15:14.876Z,1.27
2023-01-06T12:16:28.998Z,2.03
2023-01-06T12:17:40.734Z,2.40
2023-01-06T12:18:42.997Z,2.20
2023-01-06T12:19:53.683Z,1.50
2023-01-06T12:20:56.836Z,1.00
2023-01-06T12:21:59.424Z,1.20
2023-01-06T12:23:24.730Z,1.57
2023-01-06T12:24:27.170Z,1.50
2023-01-06T12:25:58.370Z,1.13
2023-01-06T12:27:04.953Z,2.57
2023-01-06T12:28:19.872Z,2.43
2023-01-06T12:29:22.267Z,1.30
2023-01-06T12:30:23.734Z,1.10
2023-01-06T12:31:36.617Z,1.47
2023-01-06T12:32:43.177Z,2.17
2023-01-06T12:33:54.665Z,1.13
2023-01-06T12:35:02.522Z,2.07
2023-01-06T12:36:23.249Z,1.40
2023-01-06T12:37:31.873Z,1.77
2023-01-06T12:38:52.133Z,1.77
2023-01-06T12:39:59.833Z,1.20
2023-01-06T12:41:08.919Z,2.17
2023-01-06T12:42:23.594Z,1.30
2023-01-06T12:43:29.641Z,1.20
2023-01-06T12:44:52.644Z,1.20
2023-01-06T12:46:28.708Z,2.47
2023-01-06T12:47:43.160Z,1.27
2023-01-06T12:49:03.307Z,1.63
2023-01-06T12:50:26.274Z,2.03
2023-01-06T12:51:42.310Z,3.93
2023-01-06T12:53:01.260Z,1.50
2023-01-06T12:54:24.318Z,1.87
2023-01-06T12:55:52.147Z,2.60
2023-01-06T12:57:01.769Z,0.80
2023-01-06T12:58:26.153Z,1.50
2023-01-06T12:59:27.646Z,1.93
2023-01-06T13:00:41.315Z,3.13
2023-01-06T13:01:51.044Z,1.97
2023-01-06T13:03:40.288Z,2.20
2023-01-06T13:04:59.939Z,0.87
2023-01-06T13:06:20.307Z,1.27
2023-01-06T13:07:48.351Z,0.60
2023-01-06T13:08:56.231Z,2.67
2023-01-06T13:10:26.666Z,0.83
2023-01-06T13:11:43.536Z,1.27
2023-01-06T13:12:53.980Z,1.93
2023-01-06T13:14:15.795Z,1.33
2023-01-06T13:15:25.535Z,1.10
2023-01-06T13:16:38.315Z,3.50
2023-01-06T13:17:50.565Z,1.60
2023-01-06T13:19:10.366Z,1.30
2023-01-06T13:20:23.163Z,1.17
2023-01-06T13:21:25.350Z,1.13
2023-01-06T13:22:55.726Z,1.03
2023-01-06T13:24:20.870Z,1.33
2023-01-06T13:25:41.076Z,2.77
2023-01-06T13:26:57.904Z,1.27
2023-01-06T13:28:10.012Z,2.13
2023-01-06T13:29:31.275Z,2.57
2023-01-06T13:30:41.823Z,3.07
2023-01-06T13:32:11.010Z,1.83
2023-01-06T13:33:31.218Z,2.67
2023-01-06T13:35:10.123Z,1.83
2023-01-06T13:36:39.075Z,1.93
2023-01-06T13:38:05.426Z,1.97
2023-01-06T13:39:24.148Z,2.27
2023-01-06T13:40:29.628Z,2.10
2023-01-06T13:41:35.377Z,1.10
2023-01-06T13:43:06.025Z,2.50
2023-01-06T13:44:25.828Z,2.00
2023-01-06T13:45:40.808Z,1.33
2023-01-06T13:46:42.871Z,2.37
2023-01-06T13:47:46.759Z,3.53
2023-01-06T13:48:55.555Z,2.30
2023-01-06T13:49:58.486Z,3.90
2023-01-06T13:51:04.587Z,2.50
2023-01-06T13:52:14.880Z,1.97
2023-01-06T13:53:20.084Z,6.73
2023-01-06T13:54:39.868Z,1.97
2023-01-06T13:55:41.513Z,2.33
2023-01-06T13:56:43.130Z,2.17
2023-01-06T13:57:44.861Z,2.53
2023-01-06T13:58:47.101Z,1.80
2023-01-06T13:59:48.724Z,2.97
2023-01-06T14:01:11.000Z,2.10
2023-01-06T14:02:35.670Z,1.73
2023-01-06T14:03:41.904Z,1.70
2023-01-06T14:04:45.439Z,3.20
2023-01-06T14:05:46.891Z,2.37
2023-01-06T14:06:49.325Z,2.27
2023-01-06T14:07:53.821Z,1.77
2023-01-06T14:08:58.865Z,1.77
2023-01-06T14:10:01.549Z,2.30
2023-01-06T14:11:20.381Z,3.07
2023-01-06T14:12:24.039Z,1.73
2023-01-06T14:13:30.495Z,2.70
2023-01-06T14:14:38.520Z,2.93
2023-01-06T14:15:55.351Z,2.17
2023-01-06T14:16:58.127Z,5.00
2023-01-06T14:18:03.688Z,2.70
2023-01-06T14:19:08.618Z,5.00
2023-01-06T14:20:31.219Z,2.50
2023-01-06T14:21:33.506Z,4.37
2023-01-06T14:22:35.299Z,3.27
2023-01-06T14:23:37.264Z,3.50
2023-01-06T14:24:43.659Z,1.87
2023-01-06T14:25:50.899Z,3.43
2023-01-06T14:27:01.014Z,3.57
2023-01-06T14:28:02.626Z,3.80
2023-01-06T14:29:41.392Z,3.30